sensor_id;sensor_type;location;lat;lon;timestamp;P1;durP1;ratioP1;P2;durP2;ratioP2
30233;SDS011;17046;52.074;4.748;2022-12-10T00:01:10;93.57;;;31.90;;
30233;SDS011;17046;52.074;4.748;2022-12-10T00:03:37;92.93;;;30.13;;
30233;SDS011;17046;52.074;4.748;2022-12-10T00:06:04;85.17;;;30.00;;
30233;SDS011;17046;52.074;4.748;2022-12-10T00:08:31;85.03;;;30.90;;
30233;SDS011;17046;52.074;4.748;2022-12-10T00:10:58;95.67;;;31.20;;
30233;SDS011;17046;52.074;4.748;2022-12-10T00:13:26;85.20;;;29.67;;
30233;SDS011;17046;52.074;4.748;2022-12-10T00:15:52;83.23;;;28.83;;
30233;SDS011;17046;52.074;4.748;2022-12-10T00:18:17;92.27;;;30.23;;
30233;SDS011;17046;52.074;4.748;2022-12-10T00:20:43;86.93;;;28.97;;
30233;SDS011;17046;52.074;4.748;2022-12-10T00:23:08;89.80;;;29.70;;
30233;SDS011;17046;52.074;4.748;2022-12-10T00:25:34;93.33;;;31.40;;
30233;SDS011;17046;52.074;4.748;2022-12-10T00:27:59;97.67;;;31.50;;
30233;SDS011;17046;52.074;4.748;2022-12-10T00:30:25;93.80;;;30.23;;
30233;SDS011;17046;52.074;4.748;2022-12-10T00:32:51;97.57;;;31.77;;
30233;SDS011;17046;52.074;4.748;2022-12-10T00:35:16;85.80;;;29.53;;
30233;SDS011;17046;52.074;4.748;2022-12-10T00:37:42;95.77;;;29.00;;
30233;SDS011;17046;52.074;4.748;2022-12-10T00:40:08;93.80;;;28.83;;
30233;SDS011;17046;52.074;4.748;2022-12-10T00:42:35;97.70;;;31.40;;
30233;SDS011;17046;52.074;4.748;2022-12-10T00:45:01;95.23;;;31.17;;
30233;SDS011;17046;52.074;4.748;2022-12-10T00:47:27;93.23;;;30.30;;
30233;SDS011;17046;52.074;4.748;2022-12-10T00:49:52;92.33;;;29.77;;
30233;SDS011;17046;52.074;4.748;2022-12-10T00:52:18;87.97;;;29.57;;
30233;SDS011;17046;52.074;4.748;2022-12-10T00:54:43;82.50;;;28.80;;
30233;SDS011;17046;52.074;4.748;2022-12-10T00:57:09;96.30;;;30.57;;
30233;SDS011;17046;52.074;4.748;2022-12-10T00:59:34;83.37;;;29.10;;
30233;SDS011;17046;52.074;4.748;2022-12-10T01:02:00;88.80;;;29.70;;
30233;SDS011;17046;52.074;4.748;2022-12-10T01:04:26;92.90;;;28.93;;
30233;SDS011;17046;52.074;4.748;2022-12-10T01:06:52;97.67;;;30.20;;
30233;SDS011;17046;52.074;4.748;2022-12-10T01:09:20;111.90;;;34.90;;
30233;SDS011;17046;52.074;4.748;2022-12-10T01:11:51;110.00;;;32.77;;
30233;SDS011;17046;52.074;4.748;2022-12-10T01:14:22;109.17;;;33.97;;
30233;SDS011;17046;52.074;4.748;2022-12-10T01:16:51;119.97;;;34.47;;
30233;SDS011;17046;52.074;4.748;2022-12-10T01:19:19;123.17;;;36.10;;
30233;SDS011;17046;52.074;4.748;2022-12-10T01:21:45;121.40;;;35.50;;
30233;SDS011;17046;52.074;4.748;2022-12-10T01:24:14;138.27;;;37.67;;
30233;SDS011;17046;52.074;4.748;2022-12-10T01:26:40;135.43;;;36.93;;
30233;SDS011;17046;52.074;4.748;2022-12-10T01:29:05;144.23;;;39.00;;
30233;SDS011;17046;52.074;4.748;2022-12-10T01:31:32;140.93;;;39.87;;
30233;SDS011;17046;52.074;4.748;2022-12-10T01:34:00;131.60;;;36.97;;
30233;SDS011;17046;52.074;4.748;2022-12-10T01:36:30;139.23;;;37.47;;
30233;SDS011;17046;52.074;4.748;2022-12-10T01:38:59;132.80;;;39.00;;
30233;SDS011;17046;52.074;4.748;2022-12-10T01:41:26;127.37;;;36.83;;
30233;SDS011;17046;52.074;4.748;2022-12-10T01:43:55;136.97;;;40.00;;
30233;SDS011;17046;52.074;4.748;2022-12-10T01:46:27;123.07;;;37.57;;
30233;SDS011;17046;52.074;4.748;2022-12-10T01:48:55;129.40;;;38.20;;
30233;SDS011;17046;52.074;4.748;2022-12-10T01:51:21;121.13;;;38.37;;
30233;SDS011;17046;52.074;4.748;2022-12-10T01:53:49;118.87;;;35.80;;
30233;SDS011;17046;52.074;4.748;2022-12-10T01:56:16;125.10;;;37.63;;
30233;SDS011;17046;52.074;4.748;2022-12-10T01:58:43;139.33;;;39.97;;
30233;SDS011;17046;52.074;4.748;2022-12-10T02:01:31;129.40;;;37.83;;
30233;SDS011;17046;52.074;4.748;2022-12-10T02:10:31;116.90;;;36.47;;
30233;SDS011;17046;52.074;4.748;2022-12-10T02:16:14;131.87;;;38.47;;
30233;SDS011;17046;52.074;4.748;2022-12-10T02:18:58;139.33;;;38.90;;
30233;SDS011;17046;52.074;4.748;2022-12-10T02:21:40;129.70;;;38.90;;
30233;SDS011;17046;52.074;4.748;2022-12-10T02:24:09;148.03;;;37.70;;
30233;SDS011;17046;52.074;4.748;2022-12-10T02:29:17;144.13;;;38.53;;
30233;SDS011;17046;52.074;4.748;2022-12-10T02:31:50;137.07;;;38.10;;
30233;SDS011;17046;52.074;4.748;2022-12-10T02:34:20;145.53;;;39.73;;
30233;SDS011;17046;52.074;4.748;2022-12-10T02:36:48;126.07;;;35.70;;
30233;SDS011;17046;52.074;4.748;2022-12-10T02:39:18;127.90;;;39.03;;
30233;SDS011;17046;52.074;4.748;2022-12-10T02:41:52;136.07;;;38.67;;
30233;SDS011;17046;52.074;4.748;2022-12-10T02:44:20;133.63;;;38.17;;
30233;SDS011;17046;52.074;4.748;2022-12-10T02:46:50;140.87;;;38.23;;
30233;SDS011;17046;52.074;4.748;2022-12-10T02:49:19;136.57;;;37.97;;
30233;SDS011;17046;52.074;4.748;2022-12-10T02:51:46;137.03;;;38.60;;
30233;SDS011;17046;52.074;4.748;2022-12-10T02:57:00;154.47;;;39.37;;
30233;SDS011;17046;52.074;4.748;2022-12-10T03:02:21;147.23;;;39.77;;
30233;SDS011;17046;52.074;4.748;2022-12-10T03:05:04;135.07;;;36.67;;
30233;SDS011;17046;52.074;4.748;2022-12-10T03:10:20;165.90;;;38.50;;
30233;SDS011;17046;52.074;4.748;2022-12-10T03:12:57;136.30;;;34.77;;
30233;SDS011;17046;52.074;4.748;2022-12-10T03:15:26;144.43;;;36.70;;
30233;SDS011;17046;52.074;4.748;2022-12-10T03:17:53;131.60;;;32.93;;
30233;SDS011;17046;52.074;4.748;2022-12-10T03:20:20;139.37;;;34.30;;
30233;SDS011;17046;52.074;4.748;2022-12-10T03:22:48;173.20;;;32.80;;
30233;SDS011;17046;52.074;4.748;2022-12-10T03:25:16;146.67;;;31.97;;
30233;SDS011;17046;52.074;4.748;2022-12-10T03:27:44;169.07;;;31.50;;
30233;SDS011;17046;52.074;4.748;2022-12-10T03:30:14;155.53;;;32.70;;
30233;SDS011;17046;52.074;4.748;2022-12-10T03:32:40;143.63;;;34.00;;
30233;SDS011;17046;52.074;4.748;2022-12-10T03:35:07;193.40;;;37.30;;
30233;SDS011;17046;52.074;4.748;2022-12-10T03:37:33;119.27;;;29.73;;
30233;SDS011;17046;52.074;4.748;2022-12-10T03:39:59;131.87;;;29.10;;
30233;SDS011;17046;52.074;4.748;2022-12-10T03:42:25;162.77;;;26.97;;
30233;SDS011;17046;52.074;4.748;2022-12-10T03:44:50;205.67;;;30.33;;
30233;SDS011;17046;52.074;4.748;2022-12-10T03:47:16;206.67;;;31.77;;
30233;SDS011;17046;52.074;4.748;2022-12-10T03:49:43;183.73;;;31.20;;
30233;SDS011;17046;52.074;4.748;2022-12-10T03:52:09;175.43;;;30.53;;
30233;SDS011;17046;52.074;4.748;2022-12-10T03:54:35;154.80;;;30.17;;
30233;SDS011;17046;52.074;4.748;2022-12-10T03:57:01;214.40;;;31.33;;
30233;SDS011;17046;52.074;4.748;2022-12-10T03:59:26;215.03;;;32.23;;
30233;SDS011;17046;52.074;4.748;2022-12-10T04:01:52;164.33;;;30.50;;
30233;SDS011;17046;52.074;4.748;2022-12-10T04:04:18;167.60;;;29.63;;
30233;SDS011;17046;52.074;4.748;2022-12-10T04:06:44;202.73;;;30.57;;
30233;SDS011;17046;52.074;4.748;2022-12-10T04:09:10;242.93;;;32.20;;
30233;SDS011;17046;52.074;4.748;2022-12-10T04:11:36;133.40;;;29.07;;
30233;SDS011;17046;52.074;4.748;2022-12-10T04:14:02;151.30;;;29.20;;
30233;SDS011;17046;52.074;4.748;2022-12-10T04:16:46;195.03;;;31.60;;
30233;SDS011;17046;52.074;4.748;2022-12-10T04:19:12;186.23;;;31.77;;
30233;SDS011;17046;52.074;4.748;2022-12-10T04:21:41;152.43;;;29.40;;
30233;SDS011;17046;52.074;4.748;2022-12-10T04:24:31;172.43;;;30.13;;
30233;SDS011;17046;52.074;4.748;2022-12-10T04:27:30;120.43;;;25.40;;
30233;SDS011;17046;52.074;4.748;2022-12-10T04:29:58;173.67;;;27.87;;
30233;SDS011;17046;52.074;4.748;2022-12-10T04:32:26;133.17;;;27.83;;
30233;SDS011;17046;52.074;4.748;2022-12-10T04:34:53;154.43;;;27.63;;
30233;SDS011;17046;52.074;4.748;2022-12-10T04:37:19;111.20;;;29.20;;
30233;SDS011;17046;52.074;4.748;2022-12-10T04:39:45;155.40;;;26.57;;
30233;SDS011;17046;52.074;4.748;2022-12-10T04:42:11;171.57;;;30.27;;
30233;SDS011;17046;52.074;4.748;2022-12-10T04:44:37;161.03;;;27.93;;
30233;SDS011;17046;52.074;4.748;2022-12-10T04:47:03;236.17;;;29.73;;
30233;SDS011;17046;52.074;4.748;2022-12-10T04:49:30;213.87;;;33.23;;
30233;SDS011;17046;52.074;4.748;2022-12-10T04:51:56;174.90;;;28.90;;
30233;SDS011;17046;52.074;4.748;2022-12-10T04:54:22;210.37;;;30.90;;
30233;SDS011;17046;52.074;4.748;2022-12-10T04:56:48;161.70;;;29.03;;
30233;SDS011;17046;52.074;4.748;2022-12-10T04:59:14;129.07;;;24.77;;
30233;SDS011;17046;52.074;4.748;2022-12-10T05:01:40;155.37;;;28.23;;
30233;SDS011;17046;52.074;4.748;2022-12-10T05:04:06;168.57;;;27.60;;
30233;SDS011;17046;52.074;4.748;2022-12-10T05:06:33;186.93;;;30.53;;
30233;SDS011;17046;52.074;4.748;2022-12-10T05:08:59;198.47;;;28.47;;
30233;SDS011;17046;52.074;4.748;2022-12-10T05:11:26;120.63;;;27.20;;
30233;SDS011;17046;52.074;4.748;2022-12-10T05:13:53;119.13;;;25.30;;
30233;SDS011;17046;52.074;4.748;2022-12-10T05:16:19;147.47;;;29.17;;
30233;SDS011;17046;52.074;4.748;2022-12-10T05:18:46;230.37;;;33.57;;
30233;SDS011;17046;52.074;4.748;2022-12-10T05:21:14;105.33;;;26.40;;
30233;SDS011;17046;52.074;4.748;2022-12-10T05:23:42;155.30;;;28.90;;
30233;SDS011;17046;52.074;4.748;2022-12-10T05:28:36;200.40;;;32.13;;
30233;SDS011;17046;52.074;4.748;2022-12-10T05:31:10;110.80;;;26.80;;
30233;SDS011;17046;52.074;4.748;2022-12-10T05:33:38;159.50;;;29.70;;
30233;SDS011;17046;52.074;4.748;2022-12-10T05:36:03;145.73;;;29.30;;
30233;SDS011;17046;52.074;4.748;2022-12-10T05:38:30;222.53;;;32.47;;
30233;SDS011;17046;52.074;4.748;2022-12-10T05:41:01;142.20;;;29.23;;
30233;SDS011;17046;52.074;4.748;2022-12-10T05:43:30;144.73;;;30.40;;
30233;SDS011;17046;52.074;4.748;2022-12-10T05:46:00;180.90;;;31.83;;
30233;SDS011;17046;52.074;4.748;2022-12-10T05:48:26;160.40;;;31.03;;
30233;SDS011;17046;52.074;4.748;2022-12-10T05:50:52;165.33;;;28.53;;
30233;SDS011;17046;52.074;4.748;2022-12-10T05:53:18;132.93;;;28.23;;
30233;SDS011;17046;52.074;4.748;2022-12-10T05:55:43;80.13;;;26.67;;
30233;SDS011;17046;52.074;4.748;2022-12-10T05:58:09;116.73;;;28.03;;
30233;SDS011;17046;52.074;4.748;2022-12-10T06:00:38;180.63;;;30.67;;
30233;SDS011;17046;52.074;4.748;2022-12-10T06:03:04;137.37;;;29.37;;
30233;SDS011;17046;52.074;4.748;2022-12-10T06:05:29;114.43;;;29.77;;
30233;SDS011;17046;52.074;4.748;2022-12-10T06:08:04;116.93;;;30.80;;
30233;SDS011;17046;52.074;4.748;2022-12-10T06:10:30;124.27;;;30.17;;
30233;SDS011;17046;52.074;4.748;2022-12-10T06:12:55;140.03;;;30.97;;
30233;SDS011;17046;52.074;4.748;2022-12-10T06:15:21;137.60;;;31.07;;
30233;SDS011;17046;52.074;4.748;2022-12-10T06:17:46;134.10;;;30.27;;
30233;SDS011;17046;52.074;4.748;2022-12-10T06:20:12;129.33;;;30.07;;
30233;SDS011;17046;52.074;4.748;2022-12-10T06:22:37;133.10;;;29.97;;
30233;SDS011;17046;52.074;4.748;2022-12-10T06:25:03;92.77;;;25.87;;
30233;SDS011;17046;52.074;4.748;2022-12-10T06:27:31;122.17;;;28.70;;
30233;SDS011;17046;52.074;4.748;2022-12-10T06:29:56;118.40;;;29.17;;
30233;SDS011;17046;52.074;4.748;2022-12-10T06:32:22;103.20;;;26.50;;
30233;SDS011;17046;52.074;4.748;2022-12-10T06:34:47;128.27;;;27.60;;
30233;SDS011;17046;52.074;4.748;2022-12-10T06:37:13;109.30;;;27.03;;
30233;SDS011;17046;52.074;4.748;2022-12-10T06:39:39;107.73;;;27.57;;
30233;SDS011;17046;52.074;4.748;2022-12-10T06:42:04;149.60;;;30.70;;
30233;SDS011;17046;52.074;4.748;2022-12-10T06:44:30;134.43;;;31.10;;
30233;SDS011;17046;52.074;4.748;2022-12-10T06:46:56;135.77;;;30.47;;
30233;SDS011;17046;52.074;4.748;2022-12-10T06:49:21;118.70;;;28.43;;
30233;SDS011;17046;52.074;4.748;2022-12-10T06:51:47;113.93;;;27.80;;
30233;SDS011;17046;52.074;4.748;2022-12-10T06:54:13;112.80;;;28.10;;
30233;SDS011;17046;52.074;4.748;2022-12-10T06:56:38;113.10;;;28.83;;
30233;SDS011;17046;52.074;4.748;2022-12-10T06:59:04;111.77;;;28.17;;
30233;SDS011;17046;52.074;4.748;2022-12-10T07:01:31;125.13;;;29.33;;
30233;SDS011;17046;52.074;4.748;2022-12-10T07:03:57;96.57;;;27.43;;
30233;SDS011;17046;52.074;4.748;2022-12-10T07:06:23;87.20;;;27.37;;
30233;SDS011;17046;52.074;4.748;2022-12-10T07:08:49;109.23;;;32.40;;
30233;SDS011;17046;52.074;4.748;2022-12-10T07:11:16;92.50;;;27.07;;
30233;SDS011;17046;52.074;4.748;2022-12-10T07:13:44;76.20;;;24.63;;
30233;SDS011;17046;52.074;4.748;2022-12-10T07:16:13;83.73;;;26.40;;
30233;SDS011;17046;52.074;4.748;2022-12-10T07:18:44;109.03;;;27.53;;
30233;SDS011;17046;52.074;4.748;2022-12-10T07:21:14;90.67;;;28.67;;
30233;SDS011;17046;52.074;4.748;2022-12-10T07:23:41;100.70;;;27.93;;
30233;SDS011;17046;52.074;4.748;2022-12-10T07:26:07;87.27;;;26.27;;
30233;SDS011;17046;52.074;4.748;2022-12-10T07:28:32;91.33;;;27.93;;
30233;SDS011;17046;52.074;4.748;2022-12-10T07:31:02;94.80;;;28.23;;
30233;SDS011;17046;52.074;4.748;2022-12-10T07:33:31;97.40;;;27.40;;
30233;SDS011;17046;52.074;4.748;2022-12-10T07:35:57;93.33;;;28.23;;
30233;SDS011;17046;52.074;4.748;2022-12-10T07:38:24;94.63;;;27.93;;
30233;SDS011;17046;52.074;4.748;2022-12-10T07:40:50;102.17;;;28.73;;
30233;SDS011;17046;52.074;4.748;2022-12-10T07:43:16;85.23;;;27.43;;
30233;SDS011;17046;52.074;4.748;2022-12-10T07:45:42;114.90;;;30.47;;
30233;SDS011;17046;52.074;4.748;2022-12-10T07:48:08;96.90;;;27.93;;
30233;SDS011;17046;52.074;4.748;2022-12-10T07:50:33;88.07;;;26.60;;
30233;SDS011;17046;52.074;4.748;2022-12-10T07:52:59;97.13;;;27.57;;
30233;SDS011;17046;52.074;4.748;2022-12-10T07:55:25;76.17;;;25.23;;
30233;SDS011;17046;52.074;4.748;2022-12-10T07:57:50;92.83;;;27.33;;
30233;SDS011;17046;52.074;4.748;2022-12-10T08:00:16;100.77;;;28.10;;
30233;SDS011;17046;52.074;4.748;2022-12-10T08:02:42;88.30;;;27.13;;
30233;SDS011;17046;52.074;4.748;2022-12-10T08:05:07;107.87;;;29.83;;
30233;SDS011;17046;52.074;4.748;2022-12-10T08:07:34;93.87;;;25.77;;
30233;SDS011;17046;52.074;4.748;2022-12-10T08:09:59;86.83;;;25.53;;
30233;SDS011;17046;52.074;4.748;2022-12-10T08:12:25;113.13;;;28.53;;
30233;SDS011;17046;52.074;4.748;2022-12-10T08:14:50;114.47;;;28.93;;
30233;SDS011;17046;52.074;4.748;2022-12-10T08:17:16;111.90;;;27.70;;
30233;SDS011;17046;52.074;4.748;2022-12-10T08:19:42;93.30;;;27.47;;
30233;SDS011;17046;52.074;4.748;2022-12-10T08:22:07;91.80;;;26.83;;
30233;SDS011;17046;52.074;4.748;2022-12-10T08:24:33;95.20;;;27.57;;
30233;SDS011;17046;52.074;4.748;2022-12-10T08:26:59;85.70;;;26.27;;
30233;SDS011;17046;52.074;4.748;2022-12-10T08:29:24;83.87;;;26.23;;
30233;SDS011;17046;52.074;4.748;2022-12-10T08:31:50;86.30;;;26.23;;
30233;SDS011;17046;52.074;4.748;2022-12-10T08:34:16;87.47;;;27.80;;
30233;SDS011;17046;52.074;4.748;2022-12-10T08:36:43;76.17;;;25.83;;
30233;SDS011;17046;52.074;4.748;2022-12-10T08:39:10;94.33;;;27.27;;
30233;SDS011;17046;52.074;4.748;2022-12-10T08:41:40;89.43;;;27.60;;
30233;SDS011;17046;52.074;4.748;2022-12-10T08:44:06;97.83;;;29.80;;
30233;SDS011;17046;52.074;4.748;2022-12-10T08:46:32;94.23;;;27.27;;
30233;SDS011;17046;52.074;4.748;2022-12-10T08:48:58;92.80;;;26.60;;
30233;SDS011;17046;52.074;4.748;2022-12-10T08:51:24;77.37;;;24.57;;
30233;SDS011;17046;52.074;4.748;2022-12-10T08:53:50;97.60;;;26.80;;
30233;SDS011;17046;52.074;4.748;2022-12-10T08:56:15;94.33;;;26.63;;
30233;SDS011;17046;52.074;4.748;2022-12-10T08:58:41;85.30;;;25.80;;
30233;SDS011;17046;52.074;4.748;2022-12-10T09:01:08;105.80;;;25.47;;
30233;SDS011;17046;52.074;4.748;2022-12-10T09:03:35;91.60;;;25.70;;
30233;SDS011;17046;52.074;4.748;2022-12-10T09:06:02;91.70;;;26.13;;
30233;SDS011;17046;52.074;4.748;2022-12-10T09:08:29;131.30;;;29.07;;
30233;SDS011;17046;52.074;4.748;2022-12-10T09:10:54;86.17;;;25.93;;
30233;SDS011;17046;52.074;4.748;2022-12-10T09:13:20;104.90;;;26.77;;
30233;SDS011;17046;52.074;4.748;2022-12-10T09:15:49;79.00;;;23.73;;
30233;SDS011;17046;52.074;4.748;2022-12-10T09:18:16;96.37;;;26.53;;
30233;SDS011;17046;52.074;4.748;2022-12-10T09:20:41;98.13;;;26.30;;
30233;SDS011;17046;52.074;4.748;2022-12-10T09:23:07;82.70;;;24.80;;
30233;SDS011;17046;52.074;4.748;2022-12-10T09:25:32;137.47;;;26.20;;
30233;SDS011;17046;52.074;4.748;2022-12-10T09:27:58;100.40;;;25.23;;
30233;SDS011;17046;52.074;4.748;2022-12-10T09:30:24;78.50;;;25.53;;
30233;SDS011;17046;52.074;4.748;2022-12-10T09:32:49;94.47;;;24.63;;
30233;SDS011;17046;52.074;4.748;2022-12-10T09:35:15;80.80;;;22.90;;
30233;SDS011;17046;52.074;4.748;2022-12-10T09:37:40;93.27;;;24.23;;
30233;SDS011;17046;52.074;4.748;2022-12-10T09:40:06;73.67;;;23.00;;
30233;SDS011;17046;52.074;4.748;2022-12-10T09:48:19;91.97;;;25.53;;
30233;SDS011;17046;52.074;4.748;2022-12-10T09:51:17;80.77;;;25.03;;
30233;SDS011;17046;52.074;4.748;2022-12-10T09:53:51;83.47;;;24.07;;
30233;SDS011;17046;52.074;4.748;2022-12-10T09:56:23;79.73;;;24.87;;
30233;SDS011;17046;52.074;4.748;2022-12-10T09:58:54;72.07;;;24.87;;
30233;SDS011;17046;52.074;4.748;2022-12-10T10:01:20;87.97;;;26.93;;
30233;SDS011;17046;52.074;4.748;2022-12-10T10:03:52;89.37;;;24.83;;
30233;SDS011;17046;52.074;4.748;2022-12-10T10:06:27;90.90;;;29.07;;
30233;SDS011;17046;52.074;4.748;2022-12-10T10:08:54;94.03;;;27.13;;
30233;SDS011;17046;52.074;4.748;2022-12-10T10:11:24;81.73;;;26.97;;
30233;SDS011;17046;52.074;4.748;2022-12-10T10:13:55;85.07;;;26.27;;
30233;SDS011;17046;52.074;4.748;2022-12-10T10:19:41;88.43;;;28.10;;
30233;SDS011;17046;52.074;4.748;2022-12-10T10:21:52;86.47;;;26.77;;
30233;SDS011;17046;52.074;4.748;2022-12-10T10:24:21;82.30;;;27.67;;
30233;SDS011;17046;52.074;4.748;2022-12-10T10:26:50;91.60;;;29.10;;
30233;SDS011;17046;52.074;4.748;2022-12-10T10:29:18;84.47;;;27.60;;
30233;SDS011;17046;52.074;4.748;2022-12-10T10:31:45;76.43;;;25.07;;
30233;SDS011;17046;52.074;4.748;2022-12-10T10:34:31;70.43;;;25.00;;
30233;SDS011;17046;52.074;4.748;2022-12-10T10:36:56;89.17;;;26.83;;
30233;SDS011;17046;52.074;4.748;2022-12-10T10:41:53;87.33;;;26.93;;
30233;SDS011;17046;52.074;4.748;2022-12-10T10:44:20;83.37;;;26.17;;
30233;SDS011;17046;52.074;4.748;2022-12-10T10:46:49;80.03;;;27.13;;
30233;SDS011;17046;52.074;4.748;2022-12-10T10:49:24;86.80;;;26.63;;
30233;SDS011;17046;52.074;4.748;2022-12-10T10:52:27;83.60;;;26.80;;
30233;SDS011;17046;52.074;4.748;2022-12-10T10:54:46;86.87;;;27.10;;
30233;SDS011;17046;52.074;4.748;2022-12-10T10:57:26;77.70;;;24.93;;
30233;SDS011;17046;52.074;4.748;2022-12-10T11:00:06;80.23;;;25.67;;
30233;SDS011;17046;52.074;4.748;2022-12-10T11:02:43;75.40;;;24.90;;
30233;SDS011;17046;52.074;4.748;2022-12-10T11:05:17;94.50;;;27.97;;
30233;SDS011;17046;52.074;4.748;2022-12-10T11:07:48;69.17;;;25.20;;
30233;SDS011;17046;52.074;4.748;2022-12-10T11:10:25;86.00;;;27.07;;
30233;SDS011;17046;52.074;4.748;2022-12-10T11:12:58;70.30;;;24.77;;
30233;SDS011;17046;52.074;4.748;2022-12-10T11:21:20;80.73;;;27.03;;
30233;SDS011;17046;52.074;4.748;2022-12-10T11:23:47;77.90;;;27.50;;
30233;SDS011;17046;52.074;4.748;2022-12-10T11:26:30;83.43;;;28.03;;
30233;SDS011;17046;52.074;4.748;2022-12-10T11:29:28;75.53;;;27.23;;
30233;SDS011;17046;52.074;4.748;2022-12-10T11:35:05;85.63;;;27.83;;
30233;SDS011;17046;52.074;4.748;2022-12-10T11:37:43;81.50;;;26.63;;
30233;SDS011;17046;52.074;4.748;2022-12-10T11:48:55;90.37;;;29.20;;
30233;SDS011;17046;52.074;4.748;2022-12-10T11:51:35;100.47;;;27.70;;
30233;SDS011;17046;52.074;4.748;2022-12-10T11:57:02;99.47;;;30.33;;
30233;SDS011;17046;52.074;4.748;2022-12-10T11:59:46;100.70;;;29.73;;
30233;SDS011;17046;52.074;4.748;2022-12-10T12:02:35;100.93;;;30.37;;
30233;SDS011;17046;52.074;4.748;2022-12-10T12:05:26;96.63;;;31.77;;
30233;SDS011;17046;52.074;4.748;2022-12-10T12:08:23;90.53;;;28.17;;
30233;SDS011;17046;52.074;4.748;2022-12-10T12:16:45;93.10;;;29.77;;
30233;SDS011;17046;52.074;4.748;2022-12-10T12:22:37;95.47;;;30.37;;
30233;SDS011;17046;52.074;4.748;2022-12-10T12:25:16;92.63;;;27.73;;
30233;SDS011;17046;52.074;4.748;2022-12-10T12:28:00;102.73;;;31.57;;
30233;SDS011;17046;52.074;4.748;2022-12-10T12:31:02;90.43;;;30.13;;
30233;SDS011;17046;52.074;4.748;2022-12-10T12:33:35;101.30;;;30.03;;
30233;SDS011;17046;52.074;4.748;2022-12-10T12:36:10;105.17;;;30.27;;
30233;SDS011;17046;52.074;4.748;2022-12-10T12:38:46;94.93;;;29.13;;
30233;SDS011;17046;52.074;4.748;2022-12-10T12:41:43;98.73;;;28.20;;
30233;SDS011;17046;52.074;4.748;2022-12-10T12:44:18;97.97;;;29.67;;
30233;SDS011;17046;52.074;4.748;2022-12-10T12:46:54;91.93;;;29.00;;
30233;SDS011;17046;52.074;4.748;2022-12-10T12:49:30;97.23;;;30.27;;
30233;SDS011;17046;52.074;4.748;2022-12-10T12:52:10;113.20;;;30.90;;
30233;SDS011;17046;52.074;4.748;2022-12-10T12:55:03;103.87;;;31.43;;
30233;SDS011;17046;52.074;4.748;2022-12-10T12:57:40;91.80;;;29.03;;
30233;SDS011;17046;52.074;4.748;2022-12-10T13:00:16;90.77;;;29.77;;
30233;SDS011;17046;52.074;4.748;2022-12-10T13:10:45;110.80;;;32.07;;
30233;SDS011;17046;52.074;4.748;2022-12-10T13:13:27;102.13;;;32.53;;
30233;SDS011;17046;52.074;4.748;2022-12-10T13:16:33;113.73;;;30.80;;
30233;SDS011;17046;52.074;4.748;2022-12-10T13:29:44;90.23;;;28.90;;
30233;SDS011;17046;52.074;4.748;2022-12-10T13:32:20;104.50;;;31.97;;
30233;SDS011;17046;52.074;4.748;2022-12-10T13:37:33;92.37;;;29.87;;
30233;SDS011;17046;52.074;4.748;2022-12-10T13:40:22;117.10;;;31.37;;
30233;SDS011;17046;52.074;4.748;2022-12-10T13:42:56;108.63;;;32.20;;
30233;SDS011;17046;52.074;4.748;2022-12-10T13:45:42;108.27;;;32.33;;
30233;SDS011;17046;52.074;4.748;2022-12-10T13:48:28;99.37;;;30.67;;
30233;SDS011;17046;52.074;4.748;2022-12-10T13:51:11;92.90;;;31.77;;
30233;SDS011;17046;52.074;4.748;2022-12-10T13:56:21;100.97;;;29.23;;
30233;SDS011;17046;52.074;4.748;2022-12-10T13:59:12;97.13;;;29.73;;
30233;SDS011;17046;52.074;4.748;2022-12-10T14:01:45;92.27;;;30.17;;
30233;SDS011;17046;52.074;4.748;2022-12-10T14:04:22;93.70;;;27.50;;
30233;SDS011;17046;52.074;4.748;2022-12-10T14:06:53;106.50;;;30.83;;
30233;SDS011;17046;52.074;4.748;2022-12-10T14:09:21;101.23;;;30.37;;
30233;SDS011;17046;52.074;4.748;2022-12-10T14:11:56;107.17;;;31.80;;
30233;SDS011;17046;52.074;4.748;2022-12-10T14:14:39;91.43;;;28.30;;
30233;SDS011;17046;52.074;4.748;2022-12-10T14:17:41;92.80;;;29.00;;
30233;SDS011;17046;52.074;4.748;2022-12-10T14:20:02;88.70;;;27.17;;
30233;SDS011;17046;52.074;4.748;2022-12-10T14:22:43;99.23;;;29.77;;
30233;SDS011;17046;52.074;4.748;2022-12-10T14:25:13;96.57;;;30.40;;
30233;SDS011;17046;52.074;4.748;2022-12-10T14:27:40;99.93;;;32.50;;
30233;SDS011;17046;52.074;4.748;2022-12-10T14:32:49;97.70;;;30.63;;
30233;SDS011;17046;52.074;4.748;2022-12-10T14:35:16;93.47;;;31.50;;
30233;SDS011;17046;52.074;4.748;2022-12-10T14:37:45;87.67;;;29.57;;
30233;SDS011;17046;52.074;4.748;2022-12-10T14:40:17;89.40;;;29.87;;
30233;SDS011;17046;52.074;4.748;2022-12-10T14:42:47;97.63;;;27.90;;
30233;SDS011;17046;52.074;4.748;2022-12-10T14:45:14;90.20;;;29.57;;
30233;SDS011;17046;52.074;4.748;2022-12-10T14:47:41;83.43;;;29.83;;
30233;SDS011;17046;52.074;4.748;2022-12-10T14:50:13;86.03;;;28.50;;
30233;SDS011;17046;52.074;4.748;2022-12-10T14:52:42;83.73;;;27.63;;
30233;SDS011;17046;52.074;4.748;2022-12-10T14:55:13;80.27;;;28.47;;
30233;SDS011;17046;52.074;4.748;2022-12-10T14:57:42;90.93;;;30.00;;
30233;SDS011;17046;52.074;4.748;2022-12-10T15:00:17;84.83;;;28.80;;
30233;SDS011;17046;52.074;4.748;2022-12-10T15:02:48;85.90;;;27.67;;
30233;SDS011;17046;52.074;4.748;2022-12-10T15:05:19;82.73;;;27.70;;
30233;SDS011;17046;52.074;4.748;2022-12-10T15:07:52;90.73;;;28.83;;
30233;SDS011;17046;52.074;4.748;2022-12-10T15:10:27;91.73;;;30.17;;
30233;SDS011;17046;52.074;4.748;2022-12-10T15:12:57;97.10;;;31.27;;
30233;SDS011;17046;52.074;4.748;2022-12-10T15:17:58;99.60;;;30.47;;
30233;SDS011;17046;52.074;4.748;2022-12-10T15:20:38;85.87;;;30.50;;
30233;SDS011;17046;52.074;4.748;2022-12-10T15:25:47;91.07;;;28.97;;
30233;SDS011;17046;52.074;4.748;2022-12-10T15:28:22;109.37;;;30.80;;
30233;SDS011;17046;52.074;4.748;2022-12-10T15:30:48;99.53;;;30.77;;
30233;SDS011;17046;52.074;4.748;2022-12-10T15:38:54;96.33;;;30.27;;
30233;SDS011;17046;52.074;4.748;2022-12-10T15:44:25;92.50;;;32.17;;
30233;SDS011;17046;52.074;4.748;2022-12-10T15:49:24;82.00;;;28.47;;
30233;SDS011;17046;52.074;4.748;2022-12-10T15:51:50;87.13;;;29.53;;
30233;SDS011;17046;52.074;4.748;2022-12-10T15:54:20;95.67;;;30.97;;
30233;SDS011;17046;52.074;4.748;2022-12-10T15:56:57;77.43;;;28.43;;
30233;SDS011;17046;52.074;4.748;2022-12-10T15:59:23;89.57;;;29.57;;
30233;SDS011;17046;52.074;4.748;2022-12-10T16:01:48;88.37;;;30.30;;
30233;SDS011;17046;52.074;4.748;2022-12-10T16:04:14;81.63;;;26.67;;
30233;SDS011;17046;52.074;4.748;2022-12-10T16:06:40;79.30;;;27.97;;
30233;SDS011;17046;52.074;4.748;2022-12-10T16:09:06;118.87;;;45.40;;
30233;SDS011;17046;52.074;4.748;2022-12-10T16:11:31;152.33;;;56.33;;
30233;SDS011;17046;52.074;4.748;2022-12-10T16:13:58;95.80;;;35.33;;
30233;SDS011;17046;52.074;4.748;2022-12-10T16:16:23;86.80;;;28.50;;
30233;SDS011;17046;52.074;4.748;2022-12-10T16:18:49;78.13;;;28.57;;